sensor_id;sensor_type;location;lat;lon;timestamp;temperature;humidity
47590;DHT22;33316;52.298;9.056;2023-03-11T00:02:14;2.30;94.50
47590;DHT22;33316;52.298;9.056;2023-03-11T00:04:41;2.30;94.50
47590;DHT22;33316;52.298;9.056;2023-03-11T00:07:08;2.30;94.40
47590;DHT22;33316;52.298;9.056;2023-03-11T00:09:35;2.30;94.30
47590;DHT22;33316;52.298;9.056;2023-03-11T00:12:04;2.30;94.30
47590;DHT22;33316;52.298;9.056;2023-03-11T00:14:43;2.30;94.30
47590;DHT22;33316;52.298;9.056;2023-03-11T00:17:10;2.30;94.20
47590;DHT22;33316;52.298;9.056;2023-03-11T00:19:37;2.30;94.10
47590;DHT22;33316;52.298;9.056;2023-03-11T00:22:04;2.30;94.10
47590;DHT22;33316;52.298;9.056;2023-03-11T00:24:32;2.20;94.20
47590;DHT22;33316;52.298;9.056;2023-03-11T00:26:59;2.20;94.00
47590;DHT22;33316;52.298;9.056;2023-03-11T00:29:28;2.20;94.00
47590;DHT22;33316;52.298;9.056;2023-03-11T00:31:55;2.20;94.00
47590;DHT22;33316;52.298;9.056;2023-03-11T00:34:22;2.20;94.00
47590;DHT22;33316;52.298;9.056;2023-03-11T00:36:50;2.20;94.00
47590;DHT22;33316;52.298;9.056;2023-03-11T00:39:17;2.20;94.00
47590;DHT22;33316;52.298;9.056;2023-03-11T00:41:44;2.20;94.00
47590;DHT22;33316;52.298;9.056;2023-03-11T00:44:11;2.20;94.00
47590;DHT22;33316;52.298;9.056;2023-03-11T00:46:39;2.20;94.00
47590;DHT22;33316;52.298;9.056;2023-03-11T00:49:06;2.20;94.00
47590;DHT22;33316;52.298;9.056;2023-03-11T00:51:33;2.20;94.00
47590;DHT22;33316;52.298;9.056;2023-03-11T00:54:00;2.20;94.00
47590;DHT22;33316;52.298;9.056;2023-03-11T00:56:27;2.20;94.00
47590;DHT22;33316;52.298;9.056;2023-03-11T00:58:53;2.20;94.00
47590;DHT22;33316;52.298;9.056;2023-03-11T01:01:20;2.20;94.00
47590;DHT22;33316;52.298;9.056;2023-03-11T01:03:48;2.20;93.90
47590;DHT22;33316;52.298;9.056;2023-03-11T01:06:16;2.20;93.90
47590;DHT22;33316;52.298;9.056;2023-03-11T01:08:43;2.20;93.90
47590;DHT22;33316;52.298;9.056;2023-03-11T01:11:09;2.20;93.90
47590;DHT22;33316;52.298;9.056;2023-03-11T01:13:37;2.20;93.90
47590;DHT22;33316;52.298;9.056;2023-03-11T01:16:04;2.20;93.80
47590;DHT22;33316;52.298;9.056;2023-03-11T01:18:32;2.20;93.80
47590;DHT22;33316;52.298;9.056;2023-03-11T01:21:00;2.20;93.80
47590;DHT22;33316;52.298;9.056;2023-03-11T01:23:27;2.20;93.80
47590;DHT22;33316;52.298;9.056;2023-03-11T01:25:54;2.20;93.80
47590;DHT22;33316;52.298;9.056;2023-03-11T01:28:20;2.20;93.70
47590;DHT22;33316;52.298;9.056;2023-03-11T01:30:47;2.20;93.70
47590;DHT22;33316;52.298;9.056;2023-03-11T01:33:15;2.10;93.70
47590;DHT22;33316;52.298;9.056;2023-03-11T01:35:42;2.10;93.70
47590;DHT22;33316;52.298;9.056;2023-03-11T01:38:10;2.10;93.70
47590;DHT22;33316;52.298;9.056;2023-03-11T01:40:39;2.10;93.70
47590;DHT22;33316;52.298;9.056;2023-03-11T01:43:33;2.10;94.10
47590;DHT22;33316;52.298;9.056;2023-03-11T01:46:07;2.10;93.70
47590;DHT22;33316;52.298;9.056;2023-03-11T01:48:36;2.10;93.70
47590;DHT22;33316;52.298;9.056;2023-03-11T01:51:03;2.10;93.70
47590;DHT22;33316;52.298;9.056;2023-03-11T01:53:32;2.10;93.80
47590;DHT22;33316;52.298;9.056;2023-03-11T01:56:00;2.10;93.70
47590;DHT22;33316;52.298;9.056;2023-03-11T01:58:30;2.10;93.70
47590;DHT22;33316;52.298;9.056;2023-03-11T02:01:00;2.10;93.70
47590;DHT22;33316;52.298;9.056;2023-03-11T02:03:29;2.10;93.70
47590;DHT22;33316;52.298;9.056;2023-03-11T02:05:56;2.10;93.70
47590;DHT22;33316;52.298;9.056;2023-03-11T02:08:25;2.10;93.70
47590;DHT22;33316;52.298;9.056;2023-03-11T02:10:54;2.10;93.60
47590;DHT22;33316;52.298;9.056;2023-03-11T02:13:21;2.10;93.50
47590;DHT22;33316;52.298;9.056;2023-03-11T02:15:49;2.10;93.50
47590;DHT22;33316;52.298;9.056;2023-03-11T02:18:16;2.10;93.50
47590;DHT22;33316;52.298;9.056;2023-03-11T02:20:46;2.10;93.50
47590;DHT22;33316;52.298;9.056;2023-03-11T02:23:14;2.10;93.50
47590;DHT22;33316;52.298;9.056;2023-03-11T02:25:43;2.00;93.50
47590;DHT22;33316;52.298;9.056;2023-03-11T02:28:12;2.00;93.50
47590;DHT22;33316;52.298;9.056;2023-03-11T02:30:40;2.00;93.50
47590;DHT22;33316;52.298;9.056;2023-03-11T02:33:10;2.10;93.60
47590;DHT22;33316;52.298;9.056;2023-03-11T02:35:38;2.10;93.60
47590;DHT22;33316;52.298;9.056;2023-03-11T02:38:05;2.00;93.60
47590;DHT22;33316;52.298;9.056;2023-03-11T02:40:36;2.00;93.60
47590;DHT22;33316;52.298;9.056;2023-03-11T02:43:05;2.00;93.60
47590;DHT22;33316;52.298;9.056;2023-03-11T02:45:34;2.00;93.60
47590;DHT22;33316;52.298;9.056;2023-03-11T02:48:01;2.00;93.70
47590;DHT22;33316;52.298;9.056;2023-03-11T02:50:30;2.00;93.70
47590;DHT22;33316;52.298;9.056;2023-03-11T02:52:58;2.00;93.70
47590;DHT22;33316;52.298;9.056;2023-03-11T02:55:25;2.00;93.70
47590;DHT22;33316;52.298;9.056;2023-03-11T02:57:51;2.00;93.70
47590;DHT22;33316;52.298;9.056;2023-03-11T03:00:18;2.00;93.60
47590;DHT22;33316;52.298;9.056;2023-03-11T03:02:47;2.00;93.60
47590;DHT22;33316;52.298;9.056;2023-03-11T03:05:17;2.00;93.60
47590;DHT22;33316;52.298;9.056;2023-03-11T03:07:45;2.00;93.60
47590;DHT22;33316;52.298;9.056;2023-03-11T03:10:11;2.00;93.60
47590;DHT22;33316;52.298;9.056;2023-03-11T03:12:38;2.00;93.60
47590;DHT22;33316;52.298;9.056;2023-03-11T03:15:05;2.00;93.60
47590;DHT22;33316;52.298;9.056;2023-03-11T03:17:32;2.00;93.60
47590;DHT22;33316;52.298;9.056;2023-03-11T03:20:00;2.00;93.60
47590;DHT22;33316;52.298;9.056;2023-03-11T03:22:29;1.90;93.60
47590;DHT22;33316;52.298;9.056;2023-03-11T03:24:55;1.90;93.50
47590;DHT22;33316;52.298;9.056;2023-03-11T03:27:22;1.90;93.50
47590;DHT22;33316;52.298;9.056;2023-03-11T03:29:51;1.90;93.50
47590;DHT22;33316;52.298;9.056;2023-03-11T03:32:18;1.90;93.80
47590;DHT22;33316;52.298;9.056;2023-03-11T03:34:44;1.90;93.50
47590;DHT22;33316;52.298;9.056;2023-03-11T03:37:12;1.90;93.40
47590;DHT22;33316;52.298;9.056;2023-03-11T03:39:39;1.90;93.40
47590;DHT22;33316;52.298;9.056;2023-03-11T03:42:06;1.80;93.40
47590;DHT22;33316;52.298;9.056;2023-03-11T03:44:32;1.80;93.40
47590;DHT22;33316;52.298;9.056;2023-03-11T03:46:59;1.80;93.40
47590;DHT22;33316;52.298;9.056;2023-03-11T03:49:25;1.80;93.40
47590;DHT22;33316;52.298;9.056;2023-03-11T03:51:55;1.80;93.40
47590;DHT22;33316;52.298;9.056;2023-03-11T03:54:23;1.70;93.40
47590;DHT22;33316;52.298;9.056;2023-03-11T03:56:49;1.70;93.40
47590;DHT22;33316;52.298;9.056;2023-03-11T03:59:16;1.70;93.40
47590;DHT22;33316;52.298;9.056;2023-03-11T04:01:42;1.70;93.40
47590;DHT22;33316;52.298;9.056;2023-03-11T04:04:09;1.70;93.40
47590;DHT22;33316;52.298;9.056;2023-03-11T04:06:35;1.70;93.40
47590;DHT22;33316;52.298;9.056;2023-03-11T04:09:02;1.70;93.40
47590;DHT22;33316;52.298;9.056;2023-03-11T04:11:30;1.70;93.40
47590;DHT22;33316;52.298;9.056;2023-03-11T04:13:57;1.70;93.40
47590;DHT22;33316;52.298;9.056;2023-03-11T04:16:26;1.70;93.40
47590;DHT22;33316;52.298;9.056;2023-03-11T04:18:53;1.70;93.40
47590;DHT22;33316;52.298;9.056;2023-03-11T04:21:19;1.70;93.40
47590;DHT22;33316;52.298;9.056;2023-03-11T04:23:46;1.70;93.40
47590;DHT22;33316;52.298;9.056;2023-03-11T04:26:15;1.70;93.40
47590;DHT22;33316;52.298;9.056;2023-03-11T04:28:43;1.70;93.40
47590;DHT22;33316;52.298;9.056;2023-03-11T04:31:13;1.70;93.30
47590;DHT22;33316;52.298;9.056;2023-03-11T04:33:39;1.70;93.40
47590;DHT22;33316;52.298;9.056;2023-03-11T04:36:06;1.70;93.40
47590;DHT22;33316;52.298;9.056;2023-03-11T04:38:33;1.70;93.40
47590;DHT22;33316;52.298;9.056;2023-03-11T04:41:00;1.70;93.40
47590;DHT22;33316;52.298;9.056;2023-03-11T04:43:26;1.80;93.40
47590;DHT22;33316;52.298;9.056;2023-03-11T04:45:54;1.70;93.30
47590;DHT22;33316;52.298;9.056;2023-03-11T04:48:21;1.70;93.30
47590;DHT22;33316;52.298;9.056;2023-03-11T04:50:49;1.70;93.30
47590;DHT22;33316;52.298;9.056;2023-03-11T04:53:16;1.70;93.20
47590;DHT22;33316;52.298;9.056;2023-03-11T04:55:42;1.70;93.20
47590;DHT22;33316;52.298;9.056;2023-03-11T04:58:09;1.70;93.10
47590;DHT22;33316;52.298;9.056;2023-03-11T05:00:35;1.70;93.10
47590;DHT22;33316;52.298;9.056;2023-03-11T05:03:03;1.70;93.10
47590;DHT22;33316;52.298;9.056;2023-03-11T05:05:30;1.70;93.10
47590;DHT22;33316;52.298;9.056;2023-03-11T05:07:56;1.70;93.00
47590;DHT22;33316;52.298;9.056;2023-03-11T05:10:23;1.70;93.00
47590;DHT22;33316;52.298;9.056;2023-03-11T05:12:50;1.60;93.00
47590;DHT22;33316;52.298;9.056;2023-03-11T05:15:17;1.70;93.00
47590;DHT22;33316;52.298;9.056;2023-03-11T05:17:43;1.60;92.90
47590;DHT22;33316;52.298;9.056;2023-03-11T05:20:11;1.60;92.90
47590;DHT22;33316;52.298;9.056;2023-03-11T05:22:38;1.60;92.90
47590;DHT22;33316;52.298;9.056;2023-03-11T05:25:05;1.60;92.90
47590;DHT22;33316;52.298;9.056;2023-03-11T05:27:32;1.60;92.90
47590;DHT22;33316;52.298;9.056;2023-03-11T05:29:58;1.60;92.80
47590;DHT22;33316;52.298;9.056;2023-03-11T05:32:25;1.50;93.10
47590;DHT22;33316;52.298;9.056;2023-03-11T05:34:51;1.60;92.80
47590;DHT22;33316;52.298;9.056;2023-03-11T05:37:19;1.50;92.70
47590;DHT22;33316;52.298;9.056;2023-03-11T05:39:46;1.50;92.70
47590;DHT22;33316;52.298;9.056;2023-03-11T05:42:12;1.50;92.70
47590;DHT22;33316;52.298;9.056;2023-03-11T05:44:39;1.50;92.60
47590;DHT22;33316;52.298;9.056;2023-03-11T05:47:06;1.50;92.60
47590;DHT22;33316;52.298;9.056;2023-03-11T05:49:33;1.50;92.60
47590;DHT22;33316;52.298;9.056;2023-03-11T05:51:59;1.50;92.60
47590;DHT22;33316;52.298;9.056;2023-03-11T05:54:27;1.50;92.60
47590;DHT22;33316;52.298;9.056;2023-03-11T05:56:54;1.50;92.50
47590;DHT22;33316;52.298;9.056;2023-03-11T05:59:20;1.50;92.50
47590;DHT22;33316;52.298;9.056;2023-03-11T06:01:47;1.50;92.50
47590;DHT22;33316;52.298;9.056;2023-03-11T06:04:14;1.50;92.40
47590;DHT22;33316;52.298;9.056;2023-03-11T06:06:40;1.50;92.40
47590;DHT22;33316;52.298;9.056;2023-03-11T06:09:09;1.50;92.40
47590;DHT22;33316;52.298;9.056;2023-03-11T06:11:38;1.50;92.30
47590;DHT22;33316;52.298;9.056;2023-03-11T06:14:04;1.50;92.30
47590;DHT22;33316;52.298;9.056;2023-03-11T06:16:31;1.50;92.30
47590;DHT22;33316;52.298;9.056;2023-03-11T06:18:58;1.50;92.20
47590;DHT22;33316;52.298;9.056;2023-03-11T06:21:25;1.50;92.30
47590;DHT22;33316;52.298;9.056;2023-03-11T06:23:51;1.50;92.30
47590;DHT22;33316;52.298;9.056;2023-03-11T06:26:19;1.50;92.30
47590;DHT22;33316;52.298;9.056;2023-03-11T06:28:47;1.50;92.30
47590;DHT22;33316;52.298;9.056;2023-03-11T06:31:15;1.50;92.20
47590;DHT22;33316;52.298;9.056;2023-03-11T06:33:42;1.50;92.10
47590;DHT22;33316;52.298;9.056;2023-03-11T06:36:09;1.50;92.10
47590;DHT22;33316;52.298;9.056;2023-03-11T06:38:37;1.60;92.10
47590;DHT22;33316;52.298;9.056;2023-03-11T06:41:04;1.60;92.10
47590;DHT22;33316;52.298;9.056;2023-03-11T06:43:31;1.60;92.30
47590;DHT22;33316;52.298;9.056;2023-03-11T06:46:00;1.60;91.90
47590;DHT22;33316;52.298;9.056;2023-03-11T06:48:27;1.60;91.90
47590;DHT22;33316;52.298;9.056;2023-03-11T06:50:53;1.60;91.90
47590;DHT22;33316;52.298;9.056;2023-03-11T06:53:20;1.50;91.80
47590;DHT22;33316;52.298;9.056;2023-03-11T06:55:56;1.60;91.80
47590;DHT22;33316;52.298;9.056;2023-03-11T06:58:22;1.60;91.80
47590;DHT22;33316;52.298;9.056;2023-03-11T07:00:49;1.60;91.70
47590;DHT22;33316;52.298;9.056;2023-03-11T07:03:17;1.60;91.80
47590;DHT22;33316;52.298;9.056;2023-03-11T07:05:44;1.60;91.70
47590;DHT22;33316;52.298;9.056;2023-03-11T07:08:10;1.60;91.70
47590;DHT22;33316;52.298;9.056;2023-03-11T07:10:37;1.60;91.70
47590;DHT22;33316;52.298;9.056;2023-03-11T07:13:03;1.70;91.70
47590;DHT22;33316;52.298;9.056;2023-03-11T07:15:30;1.70;91.70
47590;DHT22;33316;52.298;9.056;2023-03-11T07:17:56;1.70;91.70
47590;DHT22;33316;52.298;9.056;2023-03-11T07:20:24;1.70;91.60
47590;DHT22;33316;52.298;9.056;2023-03-11T07:22:51;1.80;91.60
47590;DHT22;33316;52.298;9.056;2023-03-11T07:25:17;1.80;91.60
47590;DHT22;33316;52.298;9.056;2023-03-11T07:27:44;1.80;91.50
47590;DHT22;33316;52.298;9.056;2023-03-11T07:30:11;1.80;91.50
47590;DHT22;33316;52.298;9.056;2023-03-11T07:32:38;1.80;91.20
47590;DHT22;33316;52.298;9.056;2023-03-11T07:35:05;1.80;91.30
47590;DHT22;33316;52.298;9.056;2023-03-11T07:37:33;1.80;91.30
47590;DHT22;33316;52.298;9.056;2023-03-11T07:39:59;1.80;91.30
47590;DHT22;33316;52.298;9.056;2023-03-11T07:42:26;1.80;91.40
47590;DHT22;33316;52.298;9.056;2023-03-11T07:44:52;1.80;91.40
47590;DHT22;33316;52.298;9.056;2023-03-11T07:47:19;1.90;91.50
47590;DHT22;33316;52.298;9.056;2023-03-11T07:49:46;1.90;91.30
47590;DHT22;33316;52.298;9.056;2023-03-11T07:52:12;1.90;91.30
47590;DHT22;33316;52.298;9.056;2023-03-11T07:54:40;1.90;91.30
47590;DHT22;33316;52.298;9.056;2023-03-11T07:57:07;1.90;91.20
47590;DHT22;33316;52.298;9.056;2023-03-11T07:59:41;2.00;91.30
47590;DHT22;33316;52.298;9.056;2023-03-11T08:02:08;2.00;91.20
47590;DHT22;33316;52.298;9.056;2023-03-11T08:04:35;2.00;91.10
47590;DHT22;33316;52.298;9.056;2023-03-11T08:07:01;2.00;91.00
47590;DHT22;33316;52.298;9.056;2023-03-11T08:09:28;2.00;91.00
47590;DHT22;33316;52.298;9.056;2023-03-11T08:11:56;2.10;90.90
47590;DHT22;33316;52.298;9.056;2023-03-11T08:14:22;2.20;90.90
47590;DHT22;33316;52.298;9.056;2023-03-11T08:16:49;2.20;90.90
47590;DHT22;33316;52.298;9.056;2023-03-11T08:19:15;2.30;90.90
47590;DHT22;33316;52.298;9.056;2023-03-11T08:21:42;2.40;90.80
47590;DHT22;33316;52.298;9.056;2023-03-11T08:24:09;2.40;90.60
47590;DHT22;33316;52.298;9.056;2023-03-11T08:26:37;2.40;90.50
47590;DHT22;33316;52.298;9.056;2023-03-11T08:29:05;2.40;90.50
47590;DHT22;33316;52.298;9.056;2023-03-11T08:31:32;2.40;90.50
47590;DHT22;33316;52.298;9.056;2023-03-11T08:34:00;2.40;90.40
47590;DHT22;33316;52.298;9.056;2023-03-11T08:36:27;2.40;90.30
47590;DHT22;33316;52.298;9.056;2023-03-11T08:38:54;2.40;90.30
47590;DHT22;33316;52.298;9.056;2023-03-11T08:41:21;2.40;90.40
47590;DHT22;33316;52.298;9.056;2023-03-11T08:43:47;2.40;90.50
47590;DHT22;33316;52.298;9.056;2023-03-11T08:46:20;2.40;90.50
47590;DHT22;33316;52.298;9.056;2023-03-11T08:48:47;2.40;90.30
47590;DHT22;33316;52.298;9.056;2023-03-11T08:51:14;2.50;90.50
47590;DHT22;33316;52.298;9.056;2023-03-11T08:53:40;2.60;90.60
47590;DHT22;33316;52.298;9.056;2023-03-11T08:56:07;2.60;90.40
47590;DHT22;33316;52.298;9.056;2023-03-11T08:58:34;2.70;90.40
47590;DHT22;33316;52.298;9.056;2023-03-11T09:01:00;2.80;90.60
47590;DHT22;33316;52.298;9.056;2023-03-11T09:03:31;2.80;90.50
47590;DHT22;33316;52.298;9.056;2023-03-11T09:05:58;2.90;90.60
47590;DHT22;33316;52.298;9.056;2023-03-11T09:08:25;2.90;90.10
47590;DHT22;33316;52.298;9.056;2023-03-11T09:10:52;3.00;90.20
47590;DHT22;33316;52.298;9.056;2023-03-11T09:13:19;3.00;90.10
47590;DHT22;33316;52.298;9.056;2023-03-11T09:15:46;3.00;90.00
47590;DHT22;33316;52.298;9.056;2023-03-11T09:18:13;3.00;89.90
47590;DHT22;33316;52.298;9.056;2023-03-11T09:20:41;3.00;89.90
47590;DHT22;33316;52.298;9.056;2023-03-11T09:23:08;3.10;90.00
47590;DHT22;33316;52.298;9.056;2023-03-11T09:25:35;3.10;90.00
47590;DHT22;33316;52.298;9.056;2023-03-11T09:28:02;3.20;90.00
47590;DHT22;33316;52.298;9.056;2023-03-11T09:30:28;3.20;90.00
47590;DHT22;33316;52.298;9.056;2023-03-11T09:32:58;3.20;89.70
47590;DHT22;33316;52.298;9.056;2023-03-11T09:35:24;3.30;89.50
47590;DHT22;33316;52.298;9.056;2023-03-11T09:37:52;3.30;89.30
47590;DHT22;33316;52.298;9.056;2023-03-11T09:42:48;3.30;89.10
47590;DHT22;33316;52.298;9.056;2023-03-11T09:45:20;3.30;89.10
47590;DHT22;33316;52.298;9.056;2023-03-11T09:47:52;3.40;89.00
47590;DHT22;33316;52.298;9.056;2023-03-11T09:50:25;3.40;89.00
47590;DHT22;33316;52.298;9.056;2023-03-11T09:52:57;3.40;89.30
47590;DHT22;33316;52.298;9.056;2023-03-11T09:55:32;3.40;89.00
47590;DHT22;33316;52.298;9.056;2023-03-11T09:58:02;3.40;89.20
47590;DHT22;33316;52.298;9.056;2023-03-11T10:00:29;3.50;89.40
47590;DHT22;33316;52.298;9.056;2023-03-11T10:02:57;3.60;89.70
47590;DHT22;33316;52.298;9.056;2023-03-11T10:05:25;3.60;89.60
47590;DHT22;33316;52.298;9.056;2023-03-11T10:07:54;3.60;89.60
47590;DHT22;33316;52.298;9.056;2023-03-11T10:10:24;3.70;89.40
47590;DHT22;33316;52.298;9.056;2023-03-11T10:12:55;3.70;89.30
47590;DHT22;33316;52.298;9.056;2023-03-11T10:15:27;3.70;89.20
47590;DHT22;33316;52.298;9.056;2023-03-11T10:18:01;3.70;89.20
47590;DHT22;33316;52.298;9.056;2023-03-11T10:20:32;3.80;88.90
47590;DHT22;33316;52.298;9.056;2023-03-11T10:23:06;3.80;89.50
47590;DHT22;33316;52.298;9.056;2023-03-11T10:25:39;3.80;88.80
47590;DHT22;33316;52.298;9.056;2023-03-11T10:28:08;3.90;88.70
47590;DHT22;33316;52.298;9.056;2023-03-11T10:30:38;3.90;88.50
47590;DHT22;33316;52.298;9.056;2023-03-11T10:33:06;3.90;88.50
47590;DHT22;33316;52.298;9.056;2023-03-11T10:35:38;3.90;87.80
47590;DHT22;33316;52.298;9.056;2023-03-11T10:38:09;3.90;87.60
47590;DHT22;33316;52.298;9.056;2023-03-11T10:40:38;3.90;87.70
47590;DHT22;33316;52.298;9.056;2023-03-11T10:43:08;3.90;88.10
47590;DHT22;33316;52.298;9.056;2023-03-11T10:45:37;3.90;88.30
47590;DHT22;33316;52.298;9.056;2023-03-11T10:48:07;4.00;88.40
47590;DHT22;33316;52.298;9.056;2023-03-11T10:50:34;4.10;88.00
47590;DHT22;33316;52.298;9.056;2023-03-11T10:53:05;4.10;87.80
47590;DHT22;33316;52.298;9.056;2023-03-11T10:55:32;4.10;86.90
47590;DHT22;33316;52.298;9.056;2023-03-11T10:58:09;4.10;86.60
47590;DHT22;33316;52.298;9.056;2023-03-11T11:00:37;4.10;87.00
47590;DHT22;33316;52.298;9.056;2023-03-11T11:03:03;4.20;87.40
47590;DHT22;33316;52.298;9.056;2023-03-11T11:05:31;4.20;87.40
47590;DHT22;33316;52.298;9.056;2023-03-11T11:08:02;4.30;87.20
47590;DHT22;33316;52.298;9.056;2023-03-11T11:10:33;4.40;87.10
47590;DHT22;33316;52.298;9.056;2023-03-11T11:13:00;4.40;87.20
47590;DHT22;33316;52.298;9.056;2023-03-11T11:15:30;4.50;87.30
47590;DHT22;33316;52.298;9.056;2023-03-11T11:17:58;4.60;87.30
47590;DHT22;33316;52.298;9.056;2023-03-11T11:20:25;4.60;86.00
47590;DHT22;33316;52.298;9.056;2023-03-11T11:22:53;4.60;85.50
47590;DHT22;33316;52.298;9.056;2023-03-11T11:25:24;4.60;85.40
47590;DHT22;33316;52.298;9.056;2023-03-11T11:27:55;4.70;85.30
47590;DHT22;33316;52.298;9.056;2023-03-11T11:30:24;4.70;85.10
47590;DHT22;33316;52.298;9.056;2023-03-11T11:32:52;4.80;85.40
47590;DHT22;33316;52.298;9.056;2023-03-11T11:35:20;4.90;85.60
47590;DHT22;33316;52.298;9.056;2023-03-11T11:37:47;5.00;85.60
47590;DHT22;33316;52.298;9.056;2023-03-11T11:40:23;5.10;85.60
47590;DHT22;33316;52.298;9.056;2023-03-11T11:42:51;5.10;84.20
47590;DHT22;33316;52.298;9.056;2023-03-11T11:45:21;5.10;83.70
47590;DHT22;33316;52.298;9.056;2023-03-11T11:47:51;5.20;83.00
47590;DHT22;33316;52.298;9.056;2023-03-11T11:50:22;5.20;82.20
47590;DHT22;33316;52.298;9.056;2023-03-11T11:52:51;5.20;82.10
47590;DHT22;33316;52.298;9.056;2023-03-11T11:55:21;5.20;82.60
47590;DHT22;33316;52.298;9.056;2023-03-11T11:57:49;5.30;82.10
47590;DHT22;33316;52.298;9.056;2023-03-11T12:00:17;5.30;81.60
47590;DHT22;33316;52.298;9.056;2023-03-11T12:02:45;5.30;80.90
47590;DHT22;33316;52.298;9.056;2023-03-11T12:05:19;5.30;80.60
47590;DHT22;33316;52.298;9.056;2023-03-11T12:07:53;5.40;80.20
47590;DHT22;33316;52.298;9.056;2023-03-11T12:10:26;5.40;80.50
47590;DHT22;33316;52.298;9.056;2023-03-11T12:12:59;5.40;80.00
47590;DHT22;33316;52.298;9.056;2023-03-11T12:15:30;5.50;80.80
47590;DHT22;33316;52.298;9.056;2023-03-11T12:18:03;5.60;81.10
47590;DHT22;33316;52.298;9.056;2023-03-11T12:20:32;5.60;81.00
47590;DHT22;33316;52.298;9.056;2023-03-11T12:26:04;5.70;80.60
47590;DHT22;33316;52.298;9.056;2023-03-11T12:28:39;5.80;79.60
47590;DHT22;33316;52.298;9.056;2023-03-11T12:31:07;5.80;79.60
47590;DHT22;33316;52.298;9.056;2023-03-11T12:33:35;5.80;79.20
47590;DHT22;33316;52.298;9.056;2023-03-11T12:36:04;5.90;80.40
47590;DHT22;33316;52.298;9.056;2023-03-11T12:38:31;5.90;79.50
47590;DHT22;33316;52.298;9.056;2023-03-11T12:40:59;6.00;79.40
47590;DHT22;33316;52.298;9.056;2023-03-11T12:46:13;6.00;78.10
47590;DHT22;33316;52.298;9.056;2023-03-11T12:48:42;6.00;78.00
47590;DHT22;33316;52.298;9.056;2023-03-11T12:51:37;6.00;78.40
47590;DHT22;33316;52.298;9.056;2023-03-11T12:54:19;6.10;78.20
47590;DHT22;33316;52.298;9.056;2023-03-11T12:56:48;6.00;77.30
47590;DHT22;33316;52.298;9.056;2023-03-11T12:59:20;6.10;77.80
47590;DHT22;33316;52.298;9.056;2023-03-11T13:01:54;6.10;77.30
47590;DHT22;33316;52.298;9.056;2023-03-11T13:04:24;6.10;77.20
47590;DHT22;33316;52.298;9.056;2023-03-11T13:09:37;6.10;77.50
47590;DHT22;33316;52.298;9.056;2023-03-11T13:14:46;6.20;77.80
47590;DHT22;33316;52.298;9.056;2023-03-11T13:17:21;6.30;77.80
47590;DHT22;33316;52.298;9.056;2023-03-11T13:19:50;6.30;77.90
47590;DHT22;33316;52.298;9.056;2023-03-11T13:25:16;6.40;78.30
47590;DHT22;33316;52.298;9.056;2023-03-11T13:27:43;6.40;77.90
47590;DHT22;33316;52.298;9.056;2023-03-11T13:30:14;6.50;77.50
47590;DHT22;33316;52.298;9.056;2023-03-11T13:35:42;6.50;77.00
47590;DHT22;33316;52.298;9.056;2023-03-11T13:38:12;6.50;76.60
47590;DHT22;33316;52.298;9.056;2023-03-11T13:40:40;6.60;76.00
47590;DHT22;33316;52.298;9.056;2023-03-11T13:43:08;6.50;75.90
47590;DHT22;33316;52.298;9.056;2023-03-11T13:45:36;6.60;76.00
47590;DHT22;33316;52.298;9.056;2023-03-11T13:48:05;6.60;76.60
47590;DHT22;33316;52.298;9.056;2023-03-11T13:50:38;6.60;76.00
47590;DHT22;33316;52.298;9.056;2023-03-11T13:53:14;6.70;76.40
47590;DHT22;33316;52.298;9.056;2023-03-11T13:55:44;6.70;76.00
47590;DHT22;33316;52.298;9.056;2023-03-11T13:58:15;6.70;75.00
47590;DHT22;33316;52.298;9.056;2023-03-11T14:00:46;6.70;75.10
47590;DHT22;33316;52.298;9.056;2023-03-11T14:03:13;6.70;75.00
47590;DHT22;33316;52.298;9.056;2023-03-11T14:05:43;6.80;75.00
47590;DHT22;33316;52.298;9.056;2023-03-11T14:08:17;6.80;75.10
47590;DHT22;33316;52.298;9.056;2023-03-11T14:10:52;6.80;75.10
47590;DHT22;33316;52.298;9.056;2023-03-11T14:13:20;6.80;75.00
47590;DHT22;33316;52.298;9.056;2023-03-11T14:15:50;6.80;75.10
47590;DHT22;33316;52.298;9.056;2023-03-11T14:18:31;6.80;74.40
47590;DHT22;33316;52.298;9.056;2023-03-11T14:21:01;6.80;74.40
47590;DHT22;33316;52.298;9.056;2023-03-11T14:23:32;6.80;74.00
47590;DHT22;33316;52.298;9.056;2023-03-11T14:25:59;6.80;74.10
47590;DHT22;33316;52.298;9.056;2023-03-11T14:28:30;6.80;73.90
47590;DHT22;33316;52.298;9.056;2023-03-11T14:30:58;6.80;74.00
47590;DHT22;33316;52.298;9.056;2023-03-11T14:33:25;6.80;74.40
47590;DHT22;33316;52.298;9.056;2023-03-11T14:35:52;6.80;74.40
47590;DHT22;33316;52.298;9.056;2023-03-11T14:38:19;6.80;74.10
47590;DHT22;33316;52.298;9.056;2023-03-11T14:40:49;6.80;73.60
47590;DHT22;33316;52.298;9.056;2023-03-11T14:43:17;6.80;73.00
47590;DHT22;33316;52.298;9.056;2023-03-11T14:45:45;6.70;72.90
47590;DHT22;33316;52.298;9.056;2023-03-11T14:48:16;6.70;72.60
47590;DHT22;33316;52.298;9.056;2023-03-11T14:50:45;6.60;72.20
47590;DHT22;33316;52.298;9.056;2023-03-11T14:53:14;6.50;72.30
47590;DHT22;33316;52.298;9.056;2023-03-11T14:55:43;6.50;72.70
47590;DHT22;33316;52.298;9.056;2023-03-11T14:58:18;6.50;72.30
47590;DHT22;33316;52.298;9.056;2023-03-11T15:00:48;6.50;71.70
47590;DHT22;33316;52.298;9.056;2023-03-11T15:03:21;6.50;72.70
47590;DHT22;33316;52.298;9.056;2023-03-11T15:05:48;6.50;73.00
47590;DHT22;33316;52.298;9.056;2023-03-11T15:08:19;6.50;72.30
47590;DHT22;33316;52.298;9.056;2023-03-11T15:10:59;6.50;72.50
47590;DHT22;33316;52.298;9.056;2023-03-11T15:13:27;6.40;72.30
47590;DHT22;33316;52.298;9.056;2023-03-11T15:15:54;6.40;72.30
47590;DHT22;33316;52.298;9.056;2023-03-11T15:18:21;6.40;72.00
47590;DHT22;33316;52.298;9.056;2023-03-11T15:20:59;6.40;71.60
47590;DHT22;33316;52.298;9.056;2023-03-11T15:23:26;6.40;71.50
47590;DHT22;33316;52.298;9.056;2023-03-11T15:25:53;6.40;71.80
47590;DHT22;33316;52.298;9.056;2023-03-11T15:28:20;6.40;72.20
47590;DHT22;33316;52.298;9.056;2023-03-11T15:30:49;6.40;72.60
47590;DHT22;33316;52.298;9.056;2023-03-11T15:33:20;6.40;72.60
47590;DHT22;33316;52.298;9.056;2023-03-11T15:35:47;6.40;72.60
47590;DHT22;33316;52.298;9.056;2023-03-11T15:38:17;6.50;72.70
47590;DHT22;33316;52.298;9.056;2023-03-11T15:40:49;6.50;72.90
47590;DHT22;33316;52.298;9.056;2023-03-11T15:43:20;6.50;72.40
47590;DHT22;33316;52.298;9.056;2023-03-11T15:45:48;6.40;72.10
47590;DHT22;33316;52.298;9.056;2023-03-11T15:48:16;6.40;72.10
47590;DHT22;33316;52.298;9.056;2023-03-11T15:50:46;6.40;72.10
47590;DHT22;33316;52.298;9.056;2023-03-11T15:53:13;6.40;72.00
47590;DHT22;33316;52.298;9.056;2023-03-11T15:55:40;6.40;72.20
47590;DHT22;33316;52.298;9.056;2023-03-11T15:58:07;6.40;72.70
47590;DHT22;33316;52.298;9.056;2023-03-11T16:00:34;6.40;72.90
47590;DHT22;33316;52.298;9.056;2023-03-11T16:03:02;6.40;73.00
47590;DHT22;33316;52.298;9.056;2023-03-11T16:05:32;6.40;73.30
47590;DHT22;33316;52.298;9.056;2023-03-11T16:07:59;6.40;73.40
47590;DHT22;33316;52.298;9.056;2023-03-11T16:10:25;6.40;73.20
47590;DHT22;33316;52.298;9.056;2023-03-11T16:12:53;6.40;73.50